sensor_id;sensor_type;location;lat;lon;timestamp;pressure;altitude;pressure_sealevel;temperature;humidity
9672;BME280;4874;43.568;27.824;2023-07-29T00:00:13;98736.69;;;21.00;100.00
9672;BME280;4874;43.568;27.824;2023-07-29T00:02:40;98725.91;;;20.93;100.00
9672;BME280;4874;43.568;27.824;2023-07-29T00:05:07;98728.25;;;20.83;100.00
9672;BME280;4874;43.568;27.824;2023-07-29T00:07:34;98726.78;;;20.87;100.00
9672;BME280;4874;43.568;27.824;2023-07-29T00:10:01;98729.59;;;21.06;100.00
9672;BME280;4874;43.568;27.824;2023-07-29T00:12:27;98719.63;;;21.06;100.00
9672;BME280;4874;43.568;27.824;2023-07-29T00:14:55;98719.22;;;20.52;100.00
9672;BME280;4874;43.568;27.824;2023-07-29T00:17:21;98700.22;;;20.34;100.00
9672;BME280;4874;43.568;27.824;2023-07-29T00:19:48;98715.81;;;20.76;100.00
9672;BME280;4874;43.568;27.824;2023-07-29T00:22:15;98720.44;;;20.62;100.00
9672;BME280;4874;43.568;27.824;2023-07-29T00:24:42;98715.81;;;20.82;100.00
9672;BME280;4874;43.568;27.824;2023-07-29T00:27:08;98712.72;;;20.72;100.00
9672;BME280;4874;43.568;27.824;2023-07-29T00:29:35;98710.38;;;20.89;100.00
9672;BME280;4874;43.568;27.824;2023-07-29T00:32:02;98707.28;;;21.23;100.00
9672;BME280;4874;43.568;27.824;2023-07-29T00:34:29;98696.84;;;21.51;100.00
9672;BME280;4874;43.568;27.824;2023-07-29T00:36:57;98715.88;;;21.07;100.00
9672;BME280;4874;43.568;27.824;2023-07-29T00:39:24;98694.38;;;20.87;100.00
9672;BME280;4874;43.568;27.824;2023-07-29T00:41:50;98696.06;;;20.82;100.00
9672;BME280;4874;43.568;27.824;2023-07-29T00:44:17;98697.22;;;21.06;100.00
9672;BME280;4874;43.568;27.824;2023-07-29T00:46:46;98708.66;;;21.01;100.00
9672;BME280;4874;43.568;27.824;2023-07-29T00:49:14;98668.38;;;20.55;100.00
9672;BME280;4874;43.568;27.824;2023-07-29T00:51:41;98684.59;;;20.99;100.00
9672;BME280;4874;43.568;27.824;2023-07-29T00:54:08;98697.53;;;20.78;100.00
9672;BME280;4874;43.568;27.824;2023-07-29T00:56:35;98682.09;;;20.91;100.00
9672;BME280;4874;43.568;27.824;2023-07-29T00:59:02;98662.72;;;20.70;100.00
9672;BME280;4874;43.568;27.824;2023-07-29T01:01:29;98702.03;;;20.90;100.00
9672;BME280;4874;43.568;27.824;2023-07-29T01:03:56;98690.59;;;20.95;100.00
9672;BME280;4874;43.568;27.824;2023-07-29T01:06:33;98690.16;;;20.60;100.00
9672;BME280;4874;43.568;27.824;2023-07-29T01:14:55;98688.38;;;20.35;100.00
9672;BME280;4874;43.568;27.824;2023-07-29T01:17:32;98690.16;;;21.05;100.00
9672;BME280;4874;43.568;27.824;2023-07-29T01:20:03;98657.25;;;20.83;100.00
9672;BME280;4874;43.568;27.824;2023-07-29T01:22:34;98663.66;;;20.88;100.00
9672;BME280;4874;43.568;27.824;2023-07-29T01:25:03;98660.81;;;20.77;100.00
9672;BME280;4874;43.568;27.824;2023-07-29T01:27:30;98667.59;;;20.92;100.00
9672;BME280;4874;43.568;27.824;2023-07-29T01:29:58;98651.75;;;20.65;100.00
9672;BME280;4874;43.568;27.824;2023-07-29T01:35:46;98677.81;;;20.77;100.00
9672;BME280;4874;43.568;27.824;2023-07-29T01:37:50;98686.13;;;20.76;100.00
9672;BME280;4874;43.568;27.824;2023-07-29T01:40:18;98669.44;;;20.92;100.00
9672;BME280;4874;43.568;27.824;2023-07-29T01:42:45;98677.25;;;21.07;100.00
9672;BME280;4874;43.568;27.824;2023-07-29T01:45:12;98683.41;;;20.82;100.00
9672;BME280;4874;43.568;27.824;2023-07-29T01:47:39;98675.13;;;20.77;100.00
9672;BME280;4874;43.568;27.824;2023-07-29T01:50:08;98671.78;;;20.44;100.00
9672;BME280;4874;43.568;27.824;2023-07-29T01:52:35;98687.47;;;20.54;100.00
9672;BME280;4874;43.568;27.824;2023-07-29T01:55:02;98678.38;;;20.48;100.00
9672;BME280;4874;43.568;27.824;2023-07-29T01:57:29;98680.16;;;20.67;100.00
9672;BME280;4874;43.568;27.824;2023-07-29T01:59:56;98670.03;;;20.63;100.00
9672;BME280;4874;43.568;27.824;2023-07-29T02:02:22;98674.03;;;20.47;100.00
9672;BME280;4874;43.568;27.824;2023-07-29T02:04:49;98666.97;;;20.53;100.00
9672;BME280;4874;43.568;27.824;2023-07-29T02:07:18;98665.41;;;20.32;100.00
9672;BME280;4874;43.568;27.824;2023-07-29T02:09:45;98673.09;;;20.09;100.00
9672;BME280;4874;43.568;27.824;2023-07-29T02:12:12;98678.69;;;20.14;100.00
9672;BME280;4874;43.568;27.824;2023-07-29T02:14:39;98677.34;;;19.72;100.00
9672;BME280;4874;43.568;27.824;2023-07-29T02:17:06;98672.53;;;19.87;100.00
9672;BME280;4874;43.568;27.824;2023-07-29T02:19:33;98683.47;;;20.25;100.00
9672;BME280;4874;43.568;27.824;2023-07-29T02:22:00;98676.63;;;20.23;100.00
9672;BME280;4874;43.568;27.824;2023-07-29T02:24:27;98685.19;;;19.87;100.00
9672;BME280;4874;43.568;27.824;2023-07-29T02:26:53;98688.81;;;20.32;100.00
9672;BME280;4874;43.568;27.824;2023-07-29T02:29:21;98690.72;;;20.12;100.00
9672;BME280;4874;43.568;27.824;2023-07-29T02:31:48;98681.22;;;20.16;100.00
9672;BME280;4874;43.568;27.824;2023-07-29T02:34:14;98678.78;;;19.88;100.00
9672;BME280;4874;43.568;27.824;2023-07-29T02:36:41;98594.72;;;18.88;100.00
9672;BME280;4874;43.568;27.824;2023-07-29T02:39:08;98688.09;;;19.85;100.00
9672;BME280;4874;43.568;27.824;2023-07-29T02:41:35;98683.94;;;19.89;100.00
9672;BME280;4874;43.568;27.824;2023-07-29T02:44:01;98675.50;;;19.53;100.00
9672;BME280;4874;43.568;27.824;2023-07-29T02:46:28;98686.25;;;19.79;100.00
9672;BME280;4874;43.568;27.824;2023-07-29T02:48:55;98689.13;;;19.84;100.00
9672;BME280;4874;43.568;27.824;2023-07-29T02:51:22;98690.00;;;19.33;100.00
9672;BME280;4874;43.568;27.824;2023-07-29T02:53:49;98692.47;;;19.41;100.00
9672;BME280;4874;43.568;27.824;2023-07-29T02:56:15;98683.75;;;19.26;100.00
9672;BME280;4874;43.568;27.824;2023-07-29T02:58:43;98649.41;;;19.54;100.00
9672;BME280;4874;43.568;27.824;2023-07-29T03:01:11;98690.41;;;19.43;100.00
9672;BME280;4874;43.568;27.824;2023-07-29T03:03:39;98661.16;;;19.27;100.00
9672;BME280;4874;43.568;27.824;2023-07-29T03:06:09;98679.63;;;19.62;100.00
9672;BME280;4874;43.568;27.824;2023-07-29T03:08:37;98680.38;;;20.02;100.00
9672;BME280;4874;43.568;27.824;2023-07-29T03:11:08;98687.28;;;19.72;100.00
9672;BME280;4874;43.568;27.824;2023-07-29T03:13:35;98683.31;;;19.87;100.00
9672;BME280;4874;43.568;27.824;2023-07-29T03:16:14;98682.19;;;20.28;100.00
9672;BME280;4874;43.568;27.824;2023-07-29T03:18:42;98684.09;;;20.08;100.00
9672;BME280;4874;43.568;27.824;2023-07-29T03:21:10;98681.81;;;20.11;100.00
9672;BME280;4874;43.568;27.824;2023-07-29T03:23:37;98662.41;;;20.53;100.00
9672;BME280;4874;43.568;27.824;2023-07-29T03:26:04;98682.63;;;21.13;100.00
9672;BME280;4874;43.568;27.824;2023-07-29T03:28:39;98686.84;;;21.02;100.00
9672;BME280;4874;43.568;27.824;2023-07-29T03:31:06;98670.91;;;20.50;100.00
9672;BME280;4874;43.568;27.824;2023-07-29T03:33:33;98678.50;;;20.09;100.00
9672;BME280;4874;43.568;27.824;2023-07-29T03:36:00;98673.78;;;19.98;100.00
9672;BME280;4874;43.568;27.824;2023-07-29T03:38:26;98687.88;;;19.87;100.00
9672;BME280;4874;43.568;27.824;2023-07-29T03:40:54;98654.34;;;19.83;100.00
9672;BME280;4874;43.568;27.824;2023-07-29T03:43:20;98683.72;;;19.98;100.00
9672;BME280;4874;43.568;27.824;2023-07-29T03:45:47;98679.59;;;19.82;100.00
9672;BME280;4874;43.568;27.824;2023-07-29T03:48:14;98683.91;;;20.22;100.00
9672;BME280;4874;43.568;27.824;2023-07-29T03:50:41;98690.72;;;20.12;100.00
9672;BME280;4874;43.568;27.824;2023-07-29T03:53:07;98681.06;;;19.71;100.00
9672;BME280;4874;43.568;27.824;2023-07-29T03:55:36;98673.38;;;19.88;100.00
9672;BME280;4874;43.568;27.824;2023-07-29T03:58:03;98674.06;;;20.41;100.00
9672;BME280;4874;43.568;27.824;2023-07-29T04:00:30;98682.00;;;20.29;100.00
9672;BME280;4874;43.568;27.824;2023-07-29T04:02:56;98679.56;;;20.02;100.00
9672;BME280;4874;43.568;27.824;2023-07-29T04:05:23;98686.78;;;20.08;100.00
9672;BME280;4874;43.568;27.824;2023-07-29T04:07:50;98690.22;;;20.47;100.00
9672;BME280;4874;43.568;27.824;2023-07-29T04:10:17;98699.69;;;20.63;100.00
9672;BME280;4874;43.568;27.824;2023-07-29T04:12:43;98667.81;;;20.53;100.00
9672;BME280;4874;43.568;27.824;2023-07-29T04:15:10;98695.28;;;21.13;100.00
9672;BME280;4874;43.568;27.824;2023-07-29T04:17:37;98693.38;;;21.20;100.00
9672;BME280;4874;43.568;27.824;2023-07-29T04:20:04;98703.06;;;21.27;100.00
9672;BME280;4874;43.568;27.824;2023-07-29T04:22:31;98699.84;;;21.43;100.00
9672;BME280;4874;43.568;27.824;2023-07-29T04:24:59;98667.25;;;21.14;100.00
9672;BME280;4874;43.568;27.824;2023-07-29T04:27:25;98694.50;;;21.37;100.00
9672;BME280;4874;43.568;27.824;2023-07-29T04:29:52;98700.63;;;21.75;100.00
9672;BME280;4874;43.568;27.824;2023-07-29T04:32:19;98704.75;;;22.02;100.00
9672;BME280;4874;43.568;27.824;2023-07-29T04:34:46;98707.50;;;21.71;100.00
9672;BME280;4874;43.568;27.824;2023-07-29T04:37:12;98708.31;;;21.78;100.00
9672;BME280;4874;43.568;27.824;2023-07-29T04:39:39;98716.28;;;21.66;100.00
9672;BME280;4874;43.568;27.824;2023-07-29T04:42:06;98717.50;;;21.46;100.00
9672;BME280;4874;43.568;27.824;2023-07-29T04:44:33;98716.00;;;21.50;100.00
9672;BME280;4874;43.568;27.824;2023-07-29T04:47:00;98696.09;;;21.20;100.00
9672;BME280;4874;43.568;27.824;2023-07-29T04:49:27;98725.84;;;21.38;100.00
9672;BME280;4874;43.568;27.824;2023-07-29T04:51:54;98724.75;;;21.45;100.00
9672;BME280;4874;43.568;27.824;2023-07-29T04:54:20;98726.75;;;21.32;100.00
9672;BME280;4874;43.568;27.824;2023-07-29T04:56:47;98728.47;;;21.51;100.00
9672;BME280;4874;43.568;27.824;2023-07-29T04:59:14;98721.56;;;21.55;100.00
9672;BME280;4874;43.568;27.824;2023-07-29T05:01:41;98726.94;;;21.61;100.00
9672;BME280;4874;43.568;27.824;2023-07-29T05:04:09;98723.72;;;21.71;100.00
9672;BME280;4874;43.568;27.824;2023-07-29T05:06:36;98728.63;;;21.56;100.00
9672;BME280;4874;43.568;27.824;2023-07-29T05:09:14;98740.75;;;21.78;100.00
9672;BME280;4874;43.568;27.824;2023-07-29T05:11:42;98711.66;;;21.73;100.00
9672;BME280;4874;43.568;27.824;2023-07-29T05:14:16;98744.44;;;21.83;100.00
9672;BME280;4874;43.568;27.824;2023-07-29T05:16:44;98739.97;;;22.13;100.00
9672;BME280;4874;43.568;27.824;2023-07-29T05:19:11;98741.06;;;21.88;100.00
9672;BME280;4874;43.568;27.824;2023-07-29T05:21:39;98738.44;;;21.81;100.00
9672;BME280;4874;43.568;27.824;2023-07-29T05:24:06;98738.19;;;21.83;100.00
9672;BME280;4874;43.568;27.824;2023-07-29T05:26:32;98730.47;;;22.11;100.00
9672;BME280;4874;43.568;27.824;2023-07-29T05:29:00;98732.41;;;22.22;100.00
9672;BME280;4874;43.568;27.824;2023-07-29T05:31:26;98740.81;;;22.32;100.00
9672;BME280;4874;43.568;27.824;2023-07-29T05:33:54;98703.94;;;22.38;100.00
9672;BME280;4874;43.568;27.824;2023-07-29T05:36:21;98740.09;;;22.61;100.00
9672;BME280;4874;43.568;27.824;2023-07-29T05:38:48;98735.22;;;22.52;100.00
9672;BME280;4874;43.568;27.824;2023-07-29T05:41:14;98736.47;;;22.49;100.00
9672;BME280;4874;43.568;27.824;2023-07-29T05:43:41;98733.03;;;22.78;100.00
9672;BME280;4874;43.568;27.824;2023-07-29T05:46:09;98704.31;;;22.77;100.00
9672;BME280;4874;43.568;27.824;2023-07-29T05:48:36;98729.97;;;23.04;100.00
9672;BME280;4874;43.568;27.824;2023-07-29T05:51:03;98721.41;;;23.37;100.00
9672;BME280;4874;43.568;27.824;2023-07-29T05:53:33;98730.16;;;23.62;100.00
9672;BME280;4874;43.568;27.824;2023-07-29T05:55:59;98732.44;;;23.77;100.00
9672;BME280;4874;43.568;27.824;2023-07-29T05:58:26;98734.47;;;23.93;100.00
9672;BME280;4874;43.568;27.824;2023-07-29T06:00:53;98707.34;;;23.93;100.00
9672;BME280;4874;43.568;27.824;2023-07-29T06:03:20;98732.84;;;24.15;100.00
9672;BME280;4874;43.568;27.824;2023-07-29T06:05:48;98739.88;;;24.27;100.00
9672;BME280;4874;43.568;27.824;2023-07-29T06:08:17;98719.88;;;24.68;100.00
9672;BME280;4874;43.568;27.824;2023-07-29T06:10:44;98723.81;;;25.00;100.00
9672;BME280;4874;43.568;27.824;2023-07-29T06:13:11;98718.19;;;24.90;100.00
9672;BME280;4874;43.568;27.824;2023-07-29T06:15:37;98709.97;;;24.62;100.00
9672;BME280;4874;43.568;27.824;2023-07-29T06:18:04;98722.16;;;24.71;100.00
9672;BME280;4874;43.568;27.824;2023-07-29T06:20:31;98724.00;;;25.10;100.00
9672;BME280;4874;43.568;27.824;2023-07-29T06:22:58;98724.34;;;25.14;100.00
9672;BME280;4874;43.568;27.824;2023-07-29T06:25:25;98712.44;;;24.75;100.00
9672;BME280;4874;43.568;27.824;2023-07-29T06:27:52;98712.59;;;24.69;100.00
9672;BME280;4874;43.568;27.824;2023-07-29T06:30:18;98723.41;;;25.08;100.00
9672;BME280;4874;43.568;27.824;2023-07-29T06:32:45;98716.97;;;24.98;100.00
9672;BME280;4874;43.568;27.824;2023-07-29T06:35:12;98728.38;;;25.11;100.00
9672;BME280;4874;43.568;27.824;2023-07-29T06:37:39;98714.56;;;25.58;100.00
9672;BME280;4874;43.568;27.824;2023-07-29T06:40:06;98729.31;;;25.62;100.00
9672;BME280;4874;43.568;27.824;2023-07-29T06:42:33;98703.03;;;25.67;100.00
9672;BME280;4874;43.568;27.824;2023-07-29T06:45:00;98718.84;;;26.20;99.66
9672;BME280;4874;43.568;27.824;2023-07-29T06:47:26;98739.25;;;26.60;100.00
9672;BME280;4874;43.568;27.824;2023-07-29T06:49:53;98736.56;;;26.22;100.00
9672;BME280;4874;43.568;27.824;2023-07-29T06:52:20;98730.44;;;26.32;100.00
9672;BME280;4874;43.568;27.824;2023-07-29T06:54:47;98734.53;;;26.51;100.00
9672;BME280;4874;43.568;27.824;2023-07-29T06:57:14;98695.22;;;26.63;100.00
9672;BME280;4874;43.568;27.824;2023-07-29T06:59:40;98725.75;;;26.87;99.37
9672;BME280;4874;43.568;27.824;2023-07-29T07:02:07;98730.72;;;27.17;99.39
9672;BME280;4874;43.568;27.824;2023-07-29T07:04:34;98734.56;;;27.42;98.90
9672;BME280;4874;43.568;27.824;2023-07-29T07:07:01;98732.44;;;27.49;94.30
9672;BME280;4874;43.568;27.824;2023-07-29T07:09:27;98726.53;;;27.57;92.12
9672;BME280;4874;43.568;27.824;2023-07-29T07:11:54;98719.38;;;27.03;89.13
9672;BME280;4874;43.568;27.824;2023-07-29T07:14:21;98732.47;;;27.28;86.45
9672;BME280;4874;43.568;27.824;2023-07-29T07:16:48;98727.28;;;27.26;87.06
9672;BME280;4874;43.568;27.824;2023-07-29T07:19:14;98735.59;;;27.36;88.42
9672;BME280;4874;43.568;27.824;2023-07-29T07:21:41;98736.69;;;27.35;82.50
9672;BME280;4874;43.568;27.824;2023-07-29T07:24:08;98729.28;;;27.09;81.80
9672;BME280;4874;43.568;27.824;2023-07-29T07:26:35;98709.00;;;27.80;82.60
9672;BME280;4874;43.568;27.824;2023-07-29T07:29:02;98742.31;;;27.55;83.02
9672;BME280;4874;43.568;27.824;2023-07-29T07:31:32;98736.88;;;27.55;81.06
9672;BME280;4874;43.568;27.824;2023-07-29T07:33:59;98738.78;;;27.87;80.58
9672;BME280;4874;43.568;27.824;2023-07-29T07:36:27;98734.88;;;27.77;81.96
9672;BME280;4874;43.568;27.824;2023-07-29T07:38:54;98731.22;;;27.67;82.38
9672;BME280;4874;43.568;27.824;2023-07-29T07:41:20;98731.84;;;27.74;82.76
9672;BME280;4874;43.568;27.824;2023-07-29T07:43:47;98716.50;;;28.00;80.11
9672;BME280;4874;43.568;27.824;2023-07-29T07:46:14;98732.19;;;28.14;80.01
9672;BME280;4874;43.568;27.824;2023-07-29T07:48:41;98695.38;;;27.53;80.01
9672;BME280;4874;43.568;27.824;2023-07-29T07:51:11;98721.75;;;28.06;78.62
9672;BME280;4874;43.568;27.824;2023-07-29T07:53:38;98722.78;;;28.37;77.47
9672;BME280;4874;43.568;27.824;2023-07-29T07:56:06;98731.13;;;28.20;77.39
9672;BME280;4874;43.568;27.824;2023-07-29T07:58:34;98702.94;;;28.51;74.28
9672;BME280;4874;43.568;27.824;2023-07-29T08:01:02;98720.47;;;28.19;75.08
9672;BME280;4874;43.568;27.824;2023-07-29T08:03:29;98718.84;;;27.86;75.34
9672;BME280;4874;43.568;27.824;2023-07-29T08:05:56;98697.94;;;27.97;74.60
9672;BME280;4874;43.568;27.824;2023-07-29T08:08:23;98697.25;;;28.68;72.00
9672;BME280;4874;43.568;27.824;2023-07-29T08:10:51;98713.25;;;28.44;72.68
9672;BME280;4874;43.568;27.824;2023-07-29T08:13:18;98718.97;;;28.43;73.54
9672;BME280;4874;43.568;27.824;2023-07-29T08:15:47;98710.38;;;29.43;73.42
9672;BME280;4874;43.568;27.824;2023-07-29T08:18:14;98708.06;;;29.05;74.77
9672;BME280;4874;43.568;27.824;2023-07-29T08:20:51;98710.38;;;29.43;75.07
9672;BME280;4874;43.568;27.824;2023-07-29T08:23:19;98700.75;;;29.20;71.75
9672;BME280;4874;43.568;27.824;2023-07-29T08:25:54;98703.34;;;28.85;69.54
9672;BME280;4874;43.568;27.824;2023-07-29T08:28:23;98708.47;;;28.66;67.01
9672;BME280;4874;43.568;27.824;2023-07-29T08:30:50;98710.72;;;28.74;66.64
9672;BME280;4874;43.568;27.824;2023-07-29T08:33:17;98688.72;;;29.21;67.47
9672;BME280;4874;43.568;27.824;2023-07-29T08:35:44;98699.34;;;29.13;64.56
9672;BME280;4874;43.568;27.824;2023-07-29T08:38:11;98693.69;;;29.79;64.51
9672;BME280;4874;43.568;27.824;2023-07-29T08:40:42;98702.44;;;29.41;67.05
9672;BME280;4874;43.568;27.824;2023-07-29T08:43:10;98697.41;;;29.03;68.13
9672;BME280;4874;43.568;27.824;2023-07-29T08:45:38;98691.63;;;28.95;68.28
9672;BME280;4874;43.568;27.824;2023-07-29T08:48:08;98698.03;;;29.30;67.77
9672;BME280;4874;43.568;27.824;2023-07-29T08:50:36;98696.91;;;29.21;68.89
9672;BME280;4874;43.568;27.824;2023-07-29T08:53:04;98682.03;;;28.87;67.58
9672;BME280;4874;43.568;27.824;2023-07-29T08:55:32;98671.78;;;29.29;67.96
9672;BME280;4874;43.568;27.824;2023-07-29T08:58:00;98680.53;;;29.66;67.77
9672;BME280;4874;43.568;27.824;2023-07-29T09:00:27;98652.91;;;29.88;68.07
9672;BME280;4874;43.568;27.824;2023-07-29T09:02:54;98655.66;;;29.43;68.50
9672;BME280;4874;43.568;27.824;2023-07-29T09:05:22;98682.19;;;29.67;69.53
9672;BME280;4874;43.568;27.824;2023-07-29T09:07:51;98672.88;;;29.98;66.73
9672;BME280;4874;43.568;27.824;2023-07-29T09:10:21;98675.34;;;29.95;66.18
9672;BME280;4874;43.568;27.824;2023-07-29T09:12:49;98648.81;;;29.85;64.31
9672;BME280;4874;43.568;27.824;2023-07-29T09:15:33;98662.44;;;30.11;64.84
9672;BME280;4874;43.568;27.824;2023-07-29T09:18:10;98668.28;;;29.74;66.76
9672;BME280;4874;43.568;27.824;2023-07-29T09:20:37;98666.81;;;30.32;64.38
9672;BME280;4874;43.568;27.824;2023-07-29T09:23:07;98654.25;;;30.06;64.18
9672;BME280;4874;43.568;27.824;2023-07-29T09:25:36;98663.03;;;29.57;63.97
9672;BME280;4874;43.568;27.824;2023-07-29T09:28:12;98655.94;;;29.71;65.02
9672;BME280;4874;43.568;27.824;2023-07-29T09:30:39;98650.16;;;29.93;66.33
9672;BME280;4874;43.568;27.824;2023-07-29T09:33:07;98641.94;;;29.88;65.10
9672;BME280;4874;43.568;27.824;2023-07-29T09:35:35;98652.19;;;30.61;64.17
9672;BME280;4874;43.568;27.824;2023-07-29T09:38:03;98653.91;;;30.42;63.95
9672;BME280;4874;43.568;27.824;2023-07-29T09:40:38;98655.59;;;30.18;64.81
9672;BME280;4874;43.568;27.824;2023-07-29T09:43:06;98646.75;;;30.41;64.04
9672;BME280;4874;43.568;27.824;2023-07-29T09:45:34;98647.03;;;30.45;62.68
9672;BME280;4874;43.568;27.824;2023-07-29T09:48:02;98643.59;;;29.89;62.67
9672;BME280;4874;43.568;27.824;2023-07-29T09:50:29;98645.69;;;30.37;63.05
9672;BME280;4874;43.568;27.824;2023-07-29T09:52:57;98644.84;;;30.47;62.46
9672;BME280;4874;43.568;27.824;2023-07-29T09:55:26;98650.88;;;30.44;61.50
9672;BME280;4874;43.568;27.824;2023-07-29T09:57:59;98655.47;;;30.53;62.31
9672;BME280;4874;43.568;27.824;2023-07-29T10:00:29;98660.13;;;30.63;59.93
9672;BME280;4874;43.568;27.824;2023-07-29T10:02:57;98649.13;;;30.68;60.89
9672;BME280;4874;43.568;27.824;2023-07-29T10:05:28;98651.72;;;30.44;61.56
9672;BME280;4874;43.568;27.824;2023-07-29T10:07:56;98657.44;;;30.53;60.83
9672;BME280;4874;43.568;27.824;2023-07-29T10:10:23;98638.31;;;30.28;60.75
9672;BME280;4874;43.568;27.824;2023-07-29T10:12:50;98635.19;;;30.59;61.46
9672;BME280;4874;43.568;27.824;2023-07-29T10:15:17;98640.59;;;30.79;61.39
9672;BME280;4874;43.568;27.824;2023-07-29T10:17:45;98638.69;;;30.80;60.07
9672;BME280;4874;43.568;27.824;2023-07-29T10:20:15;98640.84;;;30.83;58.68
9672;BME280;4874;43.568;27.824;2023-07-29T10:22:43;98632.75;;;30.58;57.71
9672;BME280;4874;43.568;27.824;2023-07-29T10:25:16;98632.34;;;30.84;59.56
9672;BME280;4874;43.568;27.824;2023-07-29T10:27:47;98639.44;;;30.90;61.04
9672;BME280;4874;43.568;27.824;2023-07-29T10:30:14;98639.75;;;30.74;60.84
9672;BME280;4874;43.568;27.824;2023-07-29T10:32:43;98635.91;;;30.85;62.31
9672;BME280;4874;43.568;27.824;2023-07-29T10:35:14;98627.59;;;31.00;60.45
9672;BME280;4874;43.568;27.824;2023-07-29T10:37:42;98633.09;;;30.95;60.13
9672;BME280;4874;43.568;27.824;2023-07-29T10:40:10;98630.41;;;30.90;60.78
9672;BME280;4874;43.568;27.824;2023-07-29T10:42:38;98631.44;;;30.99;61.09
9672;BME280;4874;43.568;27.824;2023-07-29T10:45:21;98599.19;;;30.81;60.21
9672;BME280;4874;43.568;27.824;2023-07-29T10:47:48;98624.16;;;30.74;60.92
9672;BME280;4874;43.568;27.824;2023-07-29T10:50:21;98615.56;;;31.35;59.01
9672;BME280;4874;43.568;27.824;2023-07-29T10:52:50;98629.81;;;31.37;59.63
9672;BME280;4874;43.568;27.824;2023-07-29T10:55:25;98626.25;;;30.92;58.57
9672;BME280;4874;43.568;27.824;2023-07-29T10:58:25;98617.25;;;30.87;59.30
9672;BME280;4874;43.568;27.824;2023-07-29T11:00:50;98605.97;;;30.93;59.83
9672;BME280;4874;43.568;27.824;2023-07-29T11:03:17;98610.69;;;31.22;57.94
9672;BME280;4874;43.568;27.824;2023-07-29T11:05:49;98616.91;;;30.98;57.44
9672;BME280;4874;43.568;27.824;2023-07-29T11:08:27;98617.38;;;31.10;58.13
9672;BME280;4874;43.568;27.824;2023-07-29T11:11:05;98613.53;;;31.06;56.95
9672;BME280;4874;43.568;27.824;2023-07-29T11:13:36;98601.59;;;30.87;57.01
9672;BME280;4874;43.568;27.824;2023-07-29T11:16:04;98602.59;;;31.45;57.28
9672;BME280;4874;43.568;27.824;2023-07-29T11:18:33;98614.75;;;31.34;55.37
9672;BME280;4874;43.568;27.824;2023-07-29T11:21:01;98612.47;;;31.07;56.52
9672;BME280;4874;43.568;27.824;2023-07-29T11:23:33;98610.00;;;31.01;57.37
9672;BME280;4874;43.568;27.824;2023-07-29T11:26:01;98612.34;;;31.23;58.33
9672;BME280;4874;43.568;27.824;2023-07-29T11:28:28;98612.72;;;31.06;56.97
9672;BME280;4874;43.568;27.824;2023-07-29T11:30:56;98606.72;;;31.04;55.93
9672;BME280;4874;43.568;27.824;2023-07-29T11:33:27;98610.66;;;30.88;56.64
9672;BME280;4874;43.568;27.824;2023-07-29T11:35:55;98601.16;;;31.14;56.67
9672;BME280;4874;43.568;27.824;2023-07-29T11:38:23;98578.75;;;31.02;56.32
9672;BME280;4874;43.568;27.824;2023-07-29T11:41:00;98605.94;;;31.32;56.86
9672;BME280;4874;43.568;27.824;2023-07-29T11:43:27;98604.94;;;31.23;56.64
9672;BME280;4874;43.568;27.824;2023-07-29T11:45:54;98596.72;;;31.18;54.61
9672;BME280;4874;43.568;27.824;2023-07-29T11:48:28;98605.94;;;30.98;55.97
9672;BME280;4874;43.568;27.824;2023-07-29T11:50:55;98600.09;;;31.10;55.13
9672;BME280;4874;43.568;27.824;2023-07-29T11:53:22;98573.34;;;30.92;56.07
9672;BME280;4874;43.568;27.824;2023-07-29T11:55:52;98591.06;;;31.43;55.23
9672;BME280;4874;43.568;27.824;2023-07-29T11:58:20;98583.47;;;31.30;55.39
9672;BME280;4874;43.568;27.824;2023-07-29T12:00:48;98590.06;;;31.34;54.66
9672;BME280;4874;43.568;27.824;2023-07-29T12:03:16;98586.91;;;31.12;55.43
9672;BME280;4874;43.568;27.824;2023-07-29T12:05:44;98585.00;;;31.13;54.84
9672;BME280;4874;43.568;27.824;2023-07-29T12:08:11;98584.16;;;31.12;55.65
9672;BME280;4874;43.568;27.824;2023-07-29T12:10:38;98569.38;;;31.08;55.35
9672;BME280;4874;43.568;27.824;2023-07-29T12:13:07;98546.31;;;31.14;54.29
9672;BME280;4874;43.568;27.824;2023-07-29T12:15:34;98583.00;;;31.23;53.49
9672;BME280;4874;43.568;27.824;2023-07-29T12:18:01;98579.44;;;31.80;55.47
9672;BME280;4874;43.568;27.824;2023-07-29T12:20:29;98555.78;;;31.60;54.11
9672;BME280;4874;43.568;27.824;2023-07-29T12:22:57;98581.13;;;31.52;55.79
9672;BME280;4874;43.568;27.824;2023-07-29T12:25:26;98580.63;;;31.45;55.66
9672;BME280;4874;43.568;27.824;2023-07-29T12:27:53;98559.41;;;31.22;57.25
9672;BME280;4874;43.568;27.824;2023-07-29T12:30:21;98571.97;;;31.62;54.15
9672;BME280;4874;43.568;27.824;2023-07-29T12:32:48;98573.94;;;31.56;56.70
9672;BME280;4874;43.568;27.824;2023-07-29T12:35:15;98552.88;;;31.75;54.81
9672;BME280;4874;43.568;27.824;2023-07-29T12:37:42;98580.25;;;31.57;56.02
9672;BME280;4874;43.568;27.824;2023-07-29T12:40:23;98551.88;;;31.38;55.00
9672;BME280;4874;43.568;27.824;2023-07-29T12:42:51;98576.28;;;31.39;56.31
9672;BME280;4874;43.568;27.824;2023-07-29T12:45:18;98574.47;;;31.58;53.87
9672;BME280;4874;43.568;27.824;2023-07-29T12:47:45;98570.16;;;31.52;53.92
9672;BME280;4874;43.568;27.824;2023-07-29T12:50:12;98564.38;;;31.54;54.74
9672;BME280;4874;43.568;27.824;2023-07-29T12:52:39;98565.00;;;31.41;55.17
9672;BME280;4874;43.568;27.824;2023-07-29T12:55:06;98567.22;;;31.39;55.27
9672;BME280;4874;43.568;27.824;2023-07-29T12:57:35;98559.78;;;31.73;55.85
9672;BME280;4874;43.568;27.824;2023-07-29T13:00:03;98571.78;;;31.77;56.23
9672;BME280;4874;43.568;27.824;2023-07-29T13:02:31;98567.25;;;31.67;55.32
9672;BME280;4874;43.568;27.824;2023-07-29T13:04:58;98546.25;;;31.53;54.59
9672;BME280;4874;43.568;27.824;2023-07-29T13:07:25;98583.47;;;31.30;55.09
9672;BME280;4874;43.568;27.824;2023-07-29T13:09:52;98578.00;;;31.25;54.89
9672;BME280;4874;43.568;27.824;2023-07-29T13:12:19;98574.31;;;31.11;55.05
9672;BME280;4874;43.568;27.824;2023-07-29T13:14:46;98570.84;;;31.29;54.73
9672;BME280;4874;43.568;27.824;2023-07-29T13:17:13;98578.78;;;31.31;54.28